sensor_id;sensor_type;location;lat;lon;timestamp;pressure;altitude;pressure_sealevel;temperature;humidity
6094;BME280;19964;42.060;24.700;2023-12-28T00:02:16;98551.66;;;5.80;60.02
6094;BME280;19964;42.060;24.700;2023-12-28T00:04:43;98544.75;;;5.80;60.01
6094;BME280;19964;42.060;24.700;2023-12-28T00:07:10;98545.44;;;5.74;59.58
6094;BME280;19964;42.060;24.700;2023-12-28T00:09:37;98553.59;;;5.78;60.59
6094;BME280;19964;42.060;24.700;2023-12-28T00:12:07;98548.50;;;5.70;60.70
6094;BME280;19964;42.060;24.700;2023-12-28T00:14:34;98549.28;;;5.78;60.54
6094;BME280;19964;42.060;24.700;2023-12-28T00:17:01;98551.38;;;5.75;60.58
6094;BME280;19964;42.060;24.700;2023-12-28T00:19:28;98548.31;;;5.79;59.75
6094;BME280;19964;42.060;24.700;2023-12-28T00:21:55;98554.59;;;5.85;60.44
6094;BME280;19964;42.060;24.700;2023-12-28T00:24:22;98564.69;;;5.86;59.91
6094;BME280;19964;42.060;24.700;2023-12-28T00:26:49;98574.81;;;5.88;59.92
6094;BME280;19964;42.060;24.700;2023-12-28T00:29:17;98588.31;;;5.90;60.02
6094;BME280;19964;42.060;24.700;2023-12-28T00:31:44;98589.53;;;6.02;59.53
6094;BME280;19964;42.060;24.700;2023-12-28T00:34:11;98582.00;;;6.00;59.29
6094;BME280;19964;42.060;24.700;2023-12-28T00:36:38;98596.47;;;5.93;60.11
6094;BME280;19964;42.060;24.700;2023-12-28T00:39:05;98592.53;;;5.75;60.84
6094;BME280;19964;42.060;24.700;2023-12-28T00:41:33;98612.91;;;5.76;61.49
6094;BME280;19964;42.060;24.700;2023-12-28T00:44:01;98613.75;;;5.69;61.29
6094;BME280;19964;42.060;24.700;2023-12-28T00:46:29;98618.44;;;5.57;61.95
6094;BME280;19964;42.060;24.700;2023-12-28T00:48:57;98620.06;;;5.50;62.21
6094;BME280;19964;42.060;24.700;2023-12-28T00:51:24;98619.31;;;5.33;63.76
6094;BME280;19964;42.060;24.700;2023-12-28T00:53:51;98624.28;;;5.19;64.87
6094;BME280;19964;42.060;24.700;2023-12-28T00:56:18;98622.22;;;5.06;65.53
6094;BME280;19964;42.060;24.700;2023-12-28T00:58:46;98622.41;;;5.05;65.40
6094;BME280;19964;42.060;24.700;2023-12-28T01:01:13;98607.94;;;4.88;65.98
6094;BME280;19964;42.060;24.700;2023-12-28T01:03:41;98620.00;;;4.87;66.30
6094;BME280;19964;42.060;24.700;2023-12-28T01:06:08;98605.41;;;4.80;65.89
6094;BME280;19964;42.060;24.700;2023-12-28T01:08:35;98616.28;;;4.98;64.96
6094;BME280;19964;42.060;24.700;2023-12-28T01:11:03;98620.13;;;5.18;64.64
6094;BME280;19964;42.060;24.700;2023-12-28T01:13:30;98626.91;;;5.11;64.62
6094;BME280;19964;42.060;24.700;2023-12-28T01:15:57;98617.91;;;5.15;64.24
6094;BME280;19964;42.060;24.700;2023-12-28T01:18:24;98606.19;;;5.20;64.05
6094;BME280;19964;42.060;24.700;2023-12-28T01:20:52;98613.72;;;5.22;63.86
6094;BME280;19964;42.060;24.700;2023-12-28T01:23:19;98613.03;;;5.36;62.17
6094;BME280;19964;42.060;24.700;2023-12-28T01:25:46;98593.34;;;5.04;62.99
6094;BME280;19964;42.060;24.700;2023-12-28T01:28:13;98615.47;;;5.13;63.83
6094;BME280;19964;42.060;24.700;2023-12-28T01:30:40;98609.06;;;5.09;62.49
6094;BME280;19964;42.060;24.700;2023-12-28T01:33:09;98591.91;;;4.94;63.63
6094;BME280;19964;42.060;24.700;2023-12-28T01:35:36;98609.56;;;5.13;62.88
6094;BME280;19964;42.060;24.700;2023-12-28T01:38:04;98610.69;;;5.10;63.38
6094;BME280;19964;42.060;24.700;2023-12-28T01:40:31;98608.41;;;5.07;63.48
6094;BME280;19964;42.060;24.700;2023-12-28T01:42:58;98611.78;;;5.08;63.07
6094;BME280;19964;42.060;24.700;2023-12-28T01:45:25;98581.63;;;4.94;63.36
6094;BME280;19964;42.060;24.700;2023-12-28T01:47:53;98610.22;;;5.07;63.56
6094;BME280;19964;42.060;24.700;2023-12-28T01:50:23;98612.59;;;5.00;63.81
6094;BME280;19964;42.060;24.700;2023-12-28T01:52:51;98610.19;;;5.15;63.00
6094;BME280;19964;42.060;24.700;2023-12-28T01:55:20;98559.84;;;4.82;63.44
6094;BME280;19964;42.060;24.700;2023-12-28T01:57:48;98585.66;;;4.96;63.73
6094;BME280;19964;42.060;24.700;2023-12-28T02:00:15;98607.47;;;5.08;64.30
6094;BME280;19964;42.060;24.700;2023-12-28T02:02:43;98623.81;;;5.07;64.67
6094;BME280;19964;42.060;24.700;2023-12-28T02:05:11;98624.31;;;5.11;63.92
6094;BME280;19964;42.060;24.700;2023-12-28T02:07:38;98628.66;;;5.18;63.32
6094;BME280;19964;42.060;24.700;2023-12-28T02:10:06;98625.78;;;4.97;64.53
6094;BME280;19964;42.060;24.700;2023-12-28T02:12:35;98607.63;;;5.07;63.22
6094;BME280;19964;42.060;24.700;2023-12-28T02:15:02;98628.78;;;5.25;63.68
6094;BME280;19964;42.060;24.700;2023-12-28T02:17:33;98608.09;;;5.10;62.67
6094;BME280;19964;42.060;24.700;2023-12-28T02:20:04;98620.94;;;5.10;64.20
6094;BME280;19964;42.060;24.700;2023-12-28T02:22:34;98585.66;;;4.72;65.06
6094;BME280;19964;42.060;24.700;2023-12-28T02:25:11;98602.97;;;4.70;65.79
6094;BME280;19964;42.060;24.700;2023-12-28T02:27:39;98628.66;;;4.86;65.67
6094;BME280;19964;42.060;24.700;2023-12-28T02:30:08;98563.03;;;4.43;65.64
6094;BME280;19964;42.060;24.700;2023-12-28T02:32:42;98619.84;;;4.81;66.15
6094;BME280;19964;42.060;24.700;2023-12-28T02:35:18;98590.63;;;4.58;66.06
6094;BME280;19964;42.060;24.700;2023-12-28T02:37:51;98616.63;;;4.79;65.84
6094;BME280;19964;42.060;24.700;2023-12-28T02:40:22;98610.53;;;4.72;66.19
6094;BME280;19964;42.060;24.700;2023-12-28T02:42:50;98618.25;;;4.72;66.45
6094;BME280;19964;42.060;24.700;2023-12-28T02:45:18;98633.63;;;4.88;66.26
6094;BME280;19964;42.060;24.700;2023-12-28T02:47:45;98624.00;;;4.74;66.63
6094;BME280;19964;42.060;24.700;2023-12-28T02:50:12;98645.16;;;4.84;65.71
6094;BME280;19964;42.060;24.700;2023-12-28T02:52:39;98641.81;;;4.83;64.82
6094;BME280;19964;42.060;24.700;2023-12-28T02:55:07;98610.03;;;4.68;64.33
6094;BME280;19964;42.060;24.700;2023-12-28T02:57:35;98656.25;;;4.92;64.45
6094;BME280;19964;42.060;24.700;2023-12-28T03:00:05;98654.16;;;4.72;66.08
6094;BME280;19964;42.060;24.700;2023-12-28T03:02:34;98649.34;;;4.69;66.29
6094;BME280;19964;42.060;24.700;2023-12-28T03:05:02;98648.38;;;4.62;66.93
6094;BME280;19964;42.060;24.700;2023-12-28T03:07:29;98646.91;;;4.51;67.13
6094;BME280;19964;42.060;24.700;2023-12-28T03:09:56;98630.56;;;4.52;66.73
6094;BME280;19964;42.060;24.700;2023-12-28T03:12:23;98620.78;;;4.47;65.82
6094;BME280;19964;42.060;24.700;2023-12-28T03:14:51;98620.13;;;4.45;66.80
6094;BME280;19964;42.060;24.700;2023-12-28T03:17:18;98637.63;;;4.58;65.83
6094;BME280;19964;42.060;24.700;2023-12-28T03:19:45;98637.28;;;4.45;66.69
6094;BME280;19964;42.060;24.700;2023-12-28T03:22:12;98633.56;;;4.31;68.13
6094;BME280;19964;42.060;24.700;2023-12-28T03:24:39;98638.19;;;4.20;68.20
6094;BME280;19964;42.060;24.700;2023-12-28T03:27:07;98638.03;;;4.29;67.01
6094;BME280;19964;42.060;24.700;2023-12-28T03:29:33;98625.72;;;4.33;66.46
6094;BME280;19964;42.060;24.700;2023-12-28T03:32:02;98607.41;;;4.20;66.29
6094;BME280;19964;42.060;24.700;2023-12-28T03:34:29;98617.06;;;4.34;66.75
6094;BME280;19964;42.060;24.700;2023-12-28T03:36:56;98613.53;;;4.27;66.63
6094;BME280;19964;42.060;24.700;2023-12-28T03:39:23;98590.91;;;4.22;67.06
6094;BME280;19964;42.060;24.700;2023-12-28T03:41:50;98608.69;;;4.24;67.14
6094;BME280;19964;42.060;24.700;2023-12-28T03:44:18;98603.41;;;4.25;66.53
6094;BME280;19964;42.060;24.700;2023-12-28T03:46:46;98612.44;;;4.45;65.92
6094;BME280;19964;42.060;24.700;2023-12-28T03:49:15;98609.88;;;4.45;65.87
6094;BME280;19964;42.060;24.700;2023-12-28T03:51:42;98618.19;;;4.47;65.84
6094;BME280;19964;42.060;24.700;2023-12-28T03:54:09;98611.63;;;4.53;65.96
6094;BME280;19964;42.060;24.700;2023-12-28T03:56:36;98618.53;;;4.44;66.24
6094;BME280;19964;42.060;24.700;2023-12-28T03:59:05;98629.78;;;4.68;64.04
6094;BME280;19964;42.060;24.700;2023-12-28T04:01:32;98630.91;;;4.73;64.35
6094;BME280;19964;42.060;24.700;2023-12-28T04:03:59;98638.78;;;4.72;64.88
6094;BME280;19964;42.060;24.700;2023-12-28T04:06:28;98636.97;;;4.48;65.52
6094;BME280;19964;42.060;24.700;2023-12-28T04:08:55;98637.44;;;4.43;65.94
6094;BME280;19964;42.060;24.700;2023-12-28T04:11:22;98643.56;;;4.50;65.24
6094;BME280;19964;42.060;24.700;2023-12-28T04:13:49;98639.19;;;4.43;66.08
6094;BME280;19964;42.060;24.700;2023-12-28T04:16:16;98636.28;;;4.30;67.56
6094;BME280;19964;42.060;24.700;2023-12-28T04:18:44;98630.97;;;4.15;68.53
6094;BME280;19964;42.060;24.700;2023-12-28T04:21:12;98604.56;;;3.81;68.78
6094;BME280;19964;42.060;24.700;2023-12-28T04:23:41;98621.06;;;3.79;69.11
6094;BME280;19964;42.060;24.700;2023-12-28T04:26:08;98649.84;;;3.73;69.55
6094;BME280;19964;42.060;24.700;2023-12-28T04:28:35;98631.59;;;3.68;69.97
6094;BME280;19964;42.060;24.700;2023-12-28T04:31:03;98638.94;;;3.71;70.01
6094;BME280;19964;42.060;24.700;2023-12-28T04:33:30;98640.25;;;3.67;69.87
6094;BME280;19964;42.060;24.700;2023-12-28T04:36:00;98648.25;;;3.72;69.06
6094;BME280;19964;42.060;24.700;2023-12-28T04:38:28;98640.78;;;3.78;68.32
6094;BME280;19964;42.060;24.700;2023-12-28T04:40:57;98637.06;;;3.81;68.33
6094;BME280;19964;42.060;24.700;2023-12-28T04:43:24;98649.44;;;3.85;67.42
6094;BME280;19964;42.060;24.700;2023-12-28T04:45:51;98646.25;;;3.91;67.12
6094;BME280;19964;42.060;24.700;2023-12-28T04:48:18;98646.72;;;3.87;66.96
6094;BME280;19964;42.060;24.700;2023-12-28T04:50:47;98656.81;;;3.88;66.98
6094;BME280;19964;42.060;24.700;2023-12-28T04:53:14;98662.53;;;3.74;68.77
6094;BME280;19964;42.060;24.700;2023-12-28T04:55:41;98637.91;;;3.55;69.11
6094;BME280;19964;42.060;24.700;2023-12-28T04:58:10;98668.59;;;3.73;68.66
6094;BME280;19964;42.060;24.700;2023-12-28T05:00:37;98658.31;;;3.65;69.79
6094;BME280;19964;42.060;24.700;2023-12-28T05:03:04;98655.13;;;3.71;69.15
6094;BME280;19964;42.060;24.700;2023-12-28T05:05:31;98639.06;;;3.53;69.08
6094;BME280;19964;42.060;24.700;2023-12-28T05:07:58;98651.88;;;3.61;69.41
6094;BME280;19964;42.060;24.700;2023-12-28T05:10:25;98642.38;;;3.53;69.42
6094;BME280;19964;42.060;24.700;2023-12-28T05:12:52;98641.09;;;3.24;71.13
6094;BME280;19964;42.060;24.700;2023-12-28T05:15:21;98637.47;;;3.34;71.84
6094;BME280;19964;42.060;24.700;2023-12-28T05:17:48;98644.13;;;3.45;70.68
6094;BME280;19964;42.060;24.700;2023-12-28T05:20:16;98635.38;;;3.30;72.67
6094;BME280;19964;42.060;24.700;2023-12-28T05:22:43;98634.03;;;3.18;73.05
6094;BME280;19964;42.060;24.700;2023-12-28T05:25:10;98630.25;;;3.30;72.81
6094;BME280;19964;42.060;24.700;2023-12-28T05:27:37;98626.63;;;3.40;71.55
6094;BME280;19964;42.060;24.700;2023-12-28T05:30:06;98618.69;;;3.51;70.98
6094;BME280;19964;42.060;24.700;2023-12-28T05:32:35;98621.16;;;3.69;70.00
6094;BME280;19964;42.060;24.700;2023-12-28T05:35:02;98592.22;;;3.69;66.61
6094;BME280;19964;42.060;24.700;2023-12-28T05:37:30;98629.31;;;3.98;66.63
6094;BME280;19964;42.060;24.700;2023-12-28T05:39:57;98628.50;;;3.98;67.11
6094;BME280;19964;42.060;24.700;2023-12-28T05:42:24;98638.13;;;3.96;67.67
6094;BME280;19964;42.060;24.700;2023-12-28T05:44:51;98643.13;;;4.05;66.13
6094;BME280;19964;42.060;24.700;2023-12-28T05:47:18;98654.03;;;4.07;65.67
6094;BME280;19964;42.060;24.700;2023-12-28T05:49:46;98658.19;;;4.08;65.88
6094;BME280;19964;42.060;24.700;2023-12-28T05:52:13;98663.88;;;3.86;66.89
6094;BME280;19964;42.060;24.700;2023-12-28T05:54:42;98664.84;;;3.93;66.57
6094;BME280;19964;42.060;24.700;2023-12-28T05:57:09;98673.72;;;4.07;66.22
6094;BME280;19964;42.060;24.700;2023-12-28T05:59:37;98666.03;;;3.73;68.15
6094;BME280;19964;42.060;24.700;2023-12-28T06:02:05;98664.56;;;3.71;68.23
6094;BME280;19964;42.060;24.700;2023-12-28T06:04:32;98664.13;;;3.75;68.06
6094;BME280;19964;42.060;24.700;2023-12-28T06:07:03;98650.66;;;3.73;68.19
6094;BME280;19964;42.060;24.700;2023-12-28T06:09:30;98636.66;;;3.59;68.47
6094;BME280;19964;42.060;24.700;2023-12-28T06:11:57;98656.16;;;3.52;68.66
6094;BME280;19964;42.060;24.700;2023-12-28T06:14:24;98654.53;;;3.51;69.44
6094;BME280;19964;42.060;24.700;2023-12-28T06:16:51;98639.59;;;3.39;69.42
6094;BME280;19964;42.060;24.700;2023-12-28T06:19:18;98653.88;;;3.49;69.34
6094;BME280;19964;42.060;24.700;2023-12-28T06:21:44;98658.22;;;3.49;69.14
6094;BME280;19964;42.060;24.700;2023-12-28T06:24:13;98580.34;;;3.08;69.33
6094;BME280;19964;42.060;24.700;2023-12-28T06:26:40;98628.22;;;3.33;70.17
6094;BME280;19964;42.060;24.700;2023-12-28T06:29:08;98647.06;;;3.32;72.02
6094;BME280;19964;42.060;24.700;2023-12-28T06:31:35;98640.31;;;3.23;72.99
6094;BME280;19964;42.060;24.700;2023-12-28T06:34:02;98632.97;;;3.28;72.01
6094;BME280;19964;42.060;24.700;2023-12-28T06:36:29;98658.53;;;3.46;71.82
6094;BME280;19964;42.060;24.700;2023-12-28T06:38:57;98662.09;;;3.53;72.01
6094;BME280;19964;42.060;24.700;2023-12-28T06:41:26;98658.94;;;3.33;73.30
6094;BME280;19964;42.060;24.700;2023-12-28T06:43:53;98620.56;;;3.16;72.86
6094;BME280;19964;42.060;24.700;2023-12-28T06:46:20;98675.47;;;3.65;72.64
6094;BME280;19964;42.060;24.700;2023-12-28T06:48:47;98680.56;;;3.65;72.07
6094;BME280;19964;42.060;24.700;2023-12-28T06:51:17;98682.06;;;3.75;72.90
6094;BME280;19964;42.060;24.700;2023-12-28T06:53:45;98686.13;;;3.86;71.75
6094;BME280;19964;42.060;24.700;2023-12-28T06:56:12;98672.66;;;3.84;71.12
6094;BME280;19964;42.060;24.700;2023-12-28T06:58:41;98688.69;;;3.86;72.32
6094;BME280;19964;42.060;24.700;2023-12-28T07:01:08;98696.31;;;4.03;76.70
6094;BME280;19964;42.060;24.700;2023-12-28T07:03:36;98636.78;;;3.84;76.63
6094;BME280;19964;42.060;24.700;2023-12-28T07:06:03;98704.31;;;4.08;74.98
6094;BME280;19964;42.060;24.700;2023-12-28T07:08:31;98695.56;;;3.85;75.21
6094;BME280;19964;42.060;24.700;2023-12-28T07:10:58;98692.06;;;3.86;74.54
6094;BME280;19964;42.060;24.700;2023-12-28T07:13:26;98692.06;;;3.86;73.17
6094;BME280;19964;42.060;24.700;2023-12-28T07:15:54;98690.28;;;3.87;73.65
6094;BME280;19964;42.060;24.700;2023-12-28T07:18:21;98692.09;;;3.94;72.65
6094;BME280;19964;42.060;24.700;2023-12-28T07:20:48;98694.00;;;3.92;72.22
6094;BME280;19964;42.060;24.700;2023-12-28T07:23:15;98682.00;;;3.93;72.83
6094;BME280;19964;42.060;24.700;2023-12-28T07:25:43;98682.22;;;3.74;75.04
6094;BME280;19964;42.060;24.700;2023-12-28T07:28:10;98679.88;;;3.88;73.72
6094;BME280;19964;42.060;24.700;2023-12-28T07:30:37;98685.81;;;3.89;74.66
6094;BME280;19964;42.060;24.700;2023-12-28T07:33:05;98679.19;;;4.12;73.08
6094;BME280;19964;42.060;24.700;2023-12-28T07:35:32;98689.00;;;4.24;72.19
6094;BME280;19964;42.060;24.700;2023-12-28T07:37:59;98700.25;;;4.31;72.75
6094;BME280;19964;42.060;24.700;2023-12-28T07:40:26;98699.78;;;4.36;72.79
6094;BME280;19964;42.060;24.700;2023-12-28T07:42:53;98700.56;;;4.28;73.44
6094;BME280;19964;42.060;24.700;2023-12-28T07:45:21;98696.13;;;4.54;73.27
6094;BME280;19964;42.060;24.700;2023-12-28T07:47:49;98698.63;;;5.12;71.77
6094;BME280;19964;42.060;24.700;2023-12-28T07:50:18;98696.63;;;6.64;66.85
6094;BME280;19964;42.060;24.700;2023-12-28T07:52:46;98694.00;;;7.98;61.97
6094;BME280;19964;42.060;24.700;2023-12-28T07:55:13;98697.84;;;9.58;57.93
6094;BME280;19964;42.060;24.700;2023-12-28T07:57:40;98699.25;;;10.83;53.71
6094;BME280;19964;42.060;24.700;2023-12-28T08:00:08;98678.53;;;11.61;51.79
6094;BME280;19964;42.060;24.700;2023-12-28T08:02:35;98697.78;;;12.69;49.09
6094;BME280;19964;42.060;24.700;2023-12-28T08:05:02;98711.88;;;13.48;47.22
6094;BME280;19964;42.060;24.700;2023-12-28T08:07:31;98717.13;;;13.66;46.24
6094;BME280;19964;42.060;24.700;2023-12-28T08:09:58;98710.59;;;14.18;45.15
6094;BME280;19964;42.060;24.700;2023-12-28T08:12:25;98709.06;;;14.65;43.87
6094;BME280;19964;42.060;24.700;2023-12-28T08:14:53;98713.03;;;14.97;43.80
6094;BME280;19964;42.060;24.700;2023-12-28T08:17:19;98698.84;;;15.92;43.13
6094;BME280;19964;42.060;24.700;2023-12-28T08:19:46;98706.69;;;17.11;41.57
6094;BME280;19964;42.060;24.700;2023-12-28T08:22:13;98709.56;;;17.76;38.57
6094;BME280;19964;42.060;24.700;2023-12-28T08:24:42;98715.88;;;17.97;37.96
6094;BME280;19964;42.060;24.700;2023-12-28T08:27:09;98716.44;;;18.58;38.02
6094;BME280;19964;42.060;24.700;2023-12-28T08:29:35;98716.97;;;19.14;37.99
6094;BME280;19964;42.060;24.700;2023-12-28T08:32:03;98712.38;;;19.58;36.56
6094;BME280;19964;42.060;24.700;2023-12-28T08:34:30;98692.88;;;17.82;36.44
6094;BME280;19964;42.060;24.700;2023-12-28T08:36:57;98713.16;;;18.08;37.04
6094;BME280;19964;42.060;24.700;2023-12-28T08:39:24;98717.84;;;17.85;37.67
6094;BME280;19964;42.060;24.700;2023-12-28T08:41:52;98700.81;;;18.95;35.46
6094;BME280;19964;42.060;24.700;2023-12-28T08:44:19;98711.06;;;18.27;35.70
6094;BME280;19964;42.060;24.700;2023-12-28T08:46:46;98711.53;;;18.02;35.67
6094;BME280;19964;42.060;24.700;2023-12-28T08:49:13;98705.44;;;18.88;35.00
6094;BME280;19964;42.060;24.700;2023-12-28T08:51:41;98706.25;;;19.47;35.07
6094;BME280;19964;42.060;24.700;2023-12-28T08:54:08;98684.72;;;19.18;36.02
6094;BME280;19964;42.060;24.700;2023-12-28T08:56:35;98697.41;;;19.58;35.08
6094;BME280;19964;42.060;24.700;2023-12-28T08:59:03;98698.25;;;20.10;34.47
6094;BME280;19964;42.060;24.700;2023-12-28T09:01:30;98692.53;;;19.82;35.01
6094;BME280;19964;42.060;24.700;2023-12-28T09:03:58;98682.34;;;20.47;35.51
6094;BME280;19964;42.060;24.700;2023-12-28T09:06:26;98686.44;;;17.73;37.79
6094;BME280;19964;42.060;24.700;2023-12-28T09:08:53;98685.25;;;18.62;37.19
6094;BME280;19964;42.060;24.700;2023-12-28T09:11:20;98686.28;;;19.46;35.83
6094;BME280;19964;42.060;24.700;2023-12-28T09:13:48;98676.75;;;16.34;38.97
6094;BME280;19964;42.060;24.700;2023-12-28T09:16:16;98646.38;;;16.33;39.69
6094;BME280;19964;42.060;24.700;2023-12-28T09:18:43;98664.22;;;16.92;38.67
6094;BME280;19964;42.060;24.700;2023-12-28T09:21:10;98652.94;;;15.96;40.04
6094;BME280;19964;42.060;24.700;2023-12-28T09:23:37;98651.97;;;14.86;42.42
6094;BME280;19964;42.060;24.700;2023-12-28T09:26:06;98612.22;;;14.73;42.08
6094;BME280;19964;42.060;24.700;2023-12-28T09:28:33;98634.97;;;15.99;40.93
6094;BME280;19964;42.060;24.700;2023-12-28T09:31:01;98627.59;;;14.92;42.51
6094;BME280;19964;42.060;24.700;2023-12-28T09:33:30;98628.66;;;14.14;44.15
6094;BME280;19964;42.060;24.700;2023-12-28T09:35:57;98615.25;;;15.34;43.03
6094;BME280;19964;42.060;24.700;2023-12-28T09:38:25;98617.19;;;15.73;43.83
6094;BME280;19964;42.060;24.700;2023-12-28T09:40:54;98623.47;;;14.44;43.62
6094;BME280;19964;42.060;24.700;2023-12-28T09:43:22;98609.47;;;14.97;43.73
6094;BME280;19964;42.060;24.700;2023-12-28T09:45:50;98609.56;;;15.83;42.97
6094;BME280;19964;42.060;24.700;2023-12-28T09:48:18;98597.03;;;14.70;44.77
6094;BME280;19964;42.060;24.700;2023-12-28T09:50:48;98583.19;;;14.69;43.53
6094;BME280;19964;42.060;24.700;2023-12-28T09:53:15;98583.06;;;14.05;44.73
6094;BME280;19964;42.060;24.700;2023-12-28T09:55:43;98578.97;;;14.27;45.90
6094;BME280;19964;42.060;24.700;2023-12-28T09:58:11;98578.78;;;14.10;45.06
6094;BME280;19964;42.060;24.700;2023-12-28T10:00:43;98558.25;;;14.32;45.04
6094;BME280;19964;42.060;24.700;2023-12-28T10:03:12;98570.88;;;14.35;44.51
6094;BME280;19964;42.060;24.700;2023-12-28T10:05:40;98557.94;;;15.04;44.48
6094;BME280;19964;42.060;24.700;2023-12-28T10:08:11;98563.50;;;14.96;42.75
6094;BME280;19964;42.060;24.700;2023-12-28T10:10:39;98548.28;;;14.70;43.89
6094;BME280;19964;42.060;24.700;2023-12-28T10:13:06;98555.88;;;14.72;44.50
6094;BME280;19964;42.060;24.700;2023-12-28T10:15:34;98542.53;;;14.39;45.02
6094;BME280;19964;42.060;24.700;2023-12-28T10:18:01;98542.31;;;14.22;46.05
6094;BME280;19964;42.060;24.700;2023-12-28T10:20:28;98539.91;;;14.09;45.31
6094;BME280;19964;42.060;24.700;2023-12-28T10:22:56;98538.41;;;14.61;45.83
6094;BME280;19964;42.060;24.700;2023-12-28T10:25:24;98529.34;;;13.74;46.15
6094;BME280;19964;42.060;24.700;2023-12-28T10:27:52;98531.41;;;14.32;47.02
6094;BME280;19964;42.060;24.700;2023-12-28T10:30:20;98524.25;;;14.80;45.36
6094;BME280;19964;42.060;24.700;2023-12-28T10:32:48;98523.34;;;15.09;45.19
6094;BME280;19964;42.060;24.700;2023-12-28T10:35:15;98526.84;;;15.03;44.29
6094;BME280;19964;42.060;24.700;2023-12-28T10:37:42;98521.41;;;14.81;43.61
6094;BME280;19964;42.060;24.700;2023-12-28T10:40:13;98526.03;;;14.56;44.21
6094;BME280;19964;42.060;24.700;2023-12-28T10:42:50;98514.47;;;14.22;43.73
6094;BME280;19964;42.060;24.700;2023-12-28T10:45:18;98509.19;;;13.81;45.37
6094;BME280;19964;42.060;24.700;2023-12-28T10:47:54;98514.88;;;14.08;44.67
6094;BME280;19964;42.060;24.700;2023-12-28T10:50:26;98512.03;;;14.09;45.22
6094;BME280;19964;42.060;24.700;2023-12-28T10:53:02;98507.25;;;14.36;44.89
6094;BME280;19964;42.060;24.700;2023-12-28T10:55:40;98503.44;;;14.39;45.75
6094;BME280;19964;42.060;24.700;2023-12-28T10:58:15;98505.06;;;14.63;44.57
6094;BME280;19964;42.060;24.700;2023-12-28T11:00:52;98507.53;;;14.16;44.25
6094;BME280;19964;42.060;24.700;2023-12-28T11:03:24;98500.31;;;14.00;44.62
6094;BME280;19964;42.060;24.700;2023-12-28T11:05:55;98495.53;;;13.86;44.92
6094;BME280;19964;42.060;24.700;2023-12-28T11:08:23;98489.72;;;14.32;44.27
6094;BME280;19964;42.060;24.700;2023-12-28T11:10:50;98471.03;;;14.58;43.65
6094;BME280;19964;42.060;24.700;2023-12-28T11:13:20;98477.00;;;14.35;44.16
6094;BME280;19964;42.060;24.700;2023-12-28T11:15:48;98471.25;;;14.68;43.89
6094;BME280;19964;42.060;24.700;2023-12-28T11:18:16;98469.88;;;14.65;44.94
6094;BME280;19964;42.060;24.700;2023-12-28T11:20:46;98456.50;;;14.50;44.86
6094;BME280;19964;42.060;24.700;2023-12-28T11:23:15;98461.03;;;15.01;44.27
6094;BME280;19964;42.060;24.700;2023-12-28T11:25:42;98436.88;;;14.82;44.20
6094;BME280;19964;42.060;24.700;2023-12-28T11:28:10;98449.13;;;15.05;44.72
6094;BME280;19964;42.060;24.700;2023-12-28T11:30:38;98435.38;;;15.09;45.53
6094;BME280;19964;42.060;24.700;2023-12-28T11:33:05;98436.88;;;15.05;44.78
6094;BME280;19964;42.060;24.700;2023-12-28T11:35:34;98436.34;;;14.80;44.95
6094;BME280;19964;42.060;24.700;2023-12-28T11:38:03;98426.09;;;14.79;44.79
6094;BME280;19964;42.060;24.700;2023-12-28T11:40:39;98428.28;;;14.47;45.10
6094;BME280;19964;42.060;24.700;2023-12-28T11:43:15;98426.72;;;14.05;46.24
6094;BME280;19964;42.060;24.700;2023-12-28T11:45:51;98432.47;;;13.66;46.42
6094;BME280;19964;42.060;24.700;2023-12-28T11:48:25;98426.38;;;14.01;46.20
6094;BME280;19964;42.060;24.700;2023-12-28T11:50:57;98426.94;;;14.03;47.09
6094;BME280;19964;42.060;24.700;2023-12-28T11:53:25;98423.53;;;14.03;46.84
6094;BME280;19964;42.060;24.700;2023-12-28T11:55:59;98428.25;;;14.36;47.02
6094;BME280;19964;42.060;24.700;2023-12-28T11:58:27;98425.66;;;14.36;45.69
6094;BME280;19964;42.060;24.700;2023-12-28T12:00:55;98421.19;;;14.24;45.10
6094;BME280;19964;42.060;24.700;2023-12-28T12:03:24;98424.56;;;14.02;45.92
6094;BME280;19964;42.060;24.700;2023-12-28T12:05:52;98413.94;;;13.74;46.99
6094;BME280;19964;42.060;24.700;2023-12-28T12:08:19;98405.28;;;13.91;46.00
6094;BME280;19964;42.060;24.700;2023-12-28T12:10:46;98404.41;;;14.20;46.28
6094;BME280;19964;42.060;24.700;2023-12-28T12:13:14;98407.16;;;14.25;45.75
6094;BME280;19964;42.060;24.700;2023-12-28T12:15:41;98405.22;;;14.21;45.95
6094;BME280;19964;42.060;24.700;2023-12-28T12:18:10;98404.69;;;14.65;44.94
6094;BME280;19964;42.060;24.700;2023-12-28T12:20:37;98402.19;;;14.70;45.43
6094;BME280;19964;42.060;24.700;2023-12-28T12:23:04;98396.97;;;14.36;44.83
6094;BME280;19964;42.060;24.700;2023-12-28T12:25:31;98379.41;;;14.31;45.08
6094;BME280;19964;42.060;24.700;2023-12-28T12:27:58;98396.72;;;14.14;45.36
6094;BME280;19964;42.060;24.700;2023-12-28T12:30:25;98395.69;;;14.26;46.49
6094;BME280;19964;42.060;24.700;2023-12-28T12:32:52;98393.47;;;14.53;46.08
6094;BME280;19964;42.060;24.700;2023-12-28T12:35:21;98391.09;;;14.40;45.20
6094;BME280;19964;42.060;24.700;2023-12-28T12:37:48;98387.81;;;14.45;45.29
6094;BME280;19964;42.060;24.700;2023-12-28T12:40:17;98389.03;;;13.78;46.25
6094;BME280;19964;42.060;24.700;2023-12-28T12:42:52;98390.75;;;13.84;46.13
6094;BME280;19964;42.060;24.700;2023-12-28T12:45:19;98384.25;;;14.16;45.35
6094;BME280;19964;42.060;24.700;2023-12-28T12:47:47;98388.38;;;13.82;46.37
6094;BME280;19964;42.060;24.700;2023-12-28T12:50:15;98363.84;;;13.60;46.95
6094;BME280;19964;42.060;24.700;2023-12-28T12:52:43;98372.63;;;13.77;46.61
6094;BME280;19964;42.060;24.700;2023-12-28T12:55:11;98369.31;;;13.70;48.49
6094;BME280;19964;42.060;24.700;2023-12-28T12:57:39;98363.16;;;13.23;48.65
6094;BME280;19964;42.060;24.700;2023-12-28T13:00:09;98369.53;;;13.09;49.18
6094;BME280;19964;42.060;24.700;2023-12-28T13:02:37;98349.97;;;12.89;50.36
6094;BME280;19964;42.060;24.700;2023-12-28T13:05:05;98356.22;;;12.99;51.20
6094;BME280;19964;42.060;24.700;2023-12-28T13:07:32;98330.75;;;12.72;50.23
6094;BME280;19964;42.060;24.700;2023-12-28T13:10:00;98345.41;;;12.84;49.24
6094;BME280;19964;42.060;24.700;2023-12-28T13:12:28;98342.75;;;12.73;49.73